Time;durP1;ratioP1;P1;durP2;ratioP2;P2;SDS_P1;SDS_P2;PMS_P1;PMS_P2;Temp;Humidity;BMP_temperature;BMP_pressure;BME280_temperature;BME280_humidity;BME280_pressure;Samples;Min_cycle;Max_cycle;Signal;HPM_P1;HPM_P2
2021/08/19 00:00:50;;;;;;;5.88;2.03;;;16.00;99.90;;;;;;5050742;28;20040;-72
2021/08/19 00:03:15;;;;;;;2.72;2.10;;;16.00;99.90;;;;;;5051665;28;20025;-72
2021/08/19 00:05:41;;;;;;;2.50;2.30;;;16.00;99.90;;;;;;5050972;28;20028;-72
2021/08/19 00:08:07;;;;;;;5.60;2.45;;;15.90;99.90;;;;;;5051630;28;20028;-72
2021/08/19 00:10:33;;;;;;;3.25;2.03;;;16.00;99.90;;;;;;5051508;28;20037;-73
2021/08/19 00:12:59;;;;;;;2.40;2.22;;;16.00;99.90;;;;;;5051459;28;20032;-71
2021/08/19 00:15:25;;;;;;;2.90;2.67;;;16.10;99.90;;;;;;5050411;28;20368;-72
2021/08/19 00:17:52;;;;;;;3.05;2.83;;;16.20;99.90;;;;;;5051398;28;20108;-70
2021/08/19 00:20:17;;;;;;;2.55;2.35;;;16.20;99.90;;;;;;5051294;28;20025;-73
2021/08/19 00:22:43;;;;;;;2.67;2.20;;;16.20;99.90;;;;;;5051395;28;20357;-73
2021/08/19 00:25:09;;;;;;;4.28;2.10;;;16.20;99.90;;;;;;5050464;28;20097;-72
2021/08/19 00:30:03;;;;;;;2.95;1.98;;;16.10;99.90;;;;;;5129140;22;20060;-72
2021/08/19 00:32:29;;;;;;;2.33;1.98;;;16.10;99.90;;;;;;5051243;28;20044;-72
2021/08/19 00:34:54;;;;;;;6.68;2.08;;;16.20;99.90;;;;;;5049685;28;20372;-72
2021/08/19 00:37:20;;;;;;;1.85;1.75;;;16.20;99.90;;;;;;5051411;28;20024;-72
2021/08/19 00:39:46;;;;;;;3.63;2.00;;;16.20;99.90;;;;;;5050911;28;20500;-72
2021/08/19 00:42:16;;;;;;;5.18;2.50;;;16.20;99.90;;;;;;5050439;28;20037;-71
2021/08/19 00:44:43;;;;;;;3.45;2.00;;;16.40;99.90;;;;;;5049965;28;20029;-72
2021/08/19 00:47:10;;;;;;;2.08;1.92;;;16.40;99.90;;;;;;5051193;28;20444;-72
2021/08/19 00:49:43;;;;;;;4.88;2.00;;;16.40;99.90;;;;;;5050708;28;20032;-72
2021/08/19 00:52:10;;;;;;;1.80;1.70;;;16.20;99.90;;;;;;5051346;28;20025;-72
2021/08/19 00:54:37;;;;;;;1.83;1.73;;;16.20;99.90;;;;;;5050304;28;20044;-72
2021/08/19 00:57:04;;;;;;;2.47;1.77;;;16.20;99.90;;;;;;5051263;28;20021;-72
2021/08/19 00:59:42;;;;;;;3.05;1.80;;;16.30;99.90;;;;;;5050864;28;20665;-72
2021/08/19 01:02:08;;;;;;;1.80;1.70;;;16.30;99.90;;;;;;5049882;28;20494;-73
2021/08/19 01:04:37;;;;;;;2.03;1.80;;;16.30;99.90;;;;;;5049730;28;20024;-72
2021/08/19 01:07:07;;;;;;;1.92;1.83;;;16.30;99.90;;;;;;5050273;28;20096;-72
2021/08/19 01:09:36;;;;;;;3.10;1.90;;;16.40;99.90;;;;;;5050596;28;20103;-72
2021/08/19 01:12:04;;;;;;;1.83;1.73;;;16.40;99.90;;;;;;5050962;28;20028;-72
2021/08/19 01:14:31;;;;;;;1.80;1.70;;;16.40;99.90;;;;;;5050161;28;20394;-72
2021/08/19 01:16:56;;;;;;;1.98;1.80;;;16.40;99.90;;;;;;5051039;28;20116;-72
2021/08/19 01:19:23;;;;;;;2.88;1.65;;;16.40;99.90;;;;;;5050422;28;20108;-72
2021/08/19 01:21:51;;;;;;;1.90;1.80;;;16.40;99.90;;;;;;5050702;28;20090;-72
2021/08/19 01:24:17;;;;;;;1.73;1.63;;;16.40;99.90;;;;;;5050081;28;20017;-72
2021/08/19 01:26:42;;;;;;;2.70;1.60;;;16.50;99.90;;;;;;5050828;28;20570;-73
2021/08/19 01:29:08;;;;;;;1.88;1.45;;;16.40;99.90;;;;;;5050347;28;20041;-73
2021/08/19 01:31:35;;;;;;;1.85;1.65;;;16.40;99.90;;;;;;5050706;28;20017;-73
2021/08/19 01:34:01;;;;;;;1.70;1.60;;;16.40;99.90;;;;;;5050495;28;20633;-73
2021/08/19 01:36:27;;;;;;;1.85;1.75;;;16.60;99.90;;;;;;5049992;28;20116;-72
2021/08/19 01:38:53;;;;;;;1.67;1.58;;;16.50;99.90;;;;;;5050623;28;20078;-73
2021/08/19 01:41:20;;;;;;;1.88;1.70;;;16.40;99.90;;;;;;5049359;28;20025;-72
2021/08/19 01:43:49;;;;;;;1.60;1.50;;;16.40;99.90;;;;;;5049349;28;20025;-73
2021/08/19 01:46:17;;;;;;;2.42;1.75;;;16.50;99.90;;;;;;5050159;28;20425;-73
2021/08/19 01:48:47;;;;;;;1.30;1.20;;;16.50;99.90;;;;;;5048997;28;20051;-73
2021/08/19 01:51:14;;;;;;;1.90;1.58;;;16.50;99.90;;;;;;5050503;28;20028;-72
2021/08/19 01:53:43;;;;;;;1.73;1.63;;;16.50;99.90;;;;;;5050450;28;20048;-72
2021/08/19 01:56:09;;;;;;;2.17;1.50;;;16.50;99.90;;;;;;5052231;28;20060;-72
2021/08/19 01:58:35;;;;;;;1.80;1.70;;;16.50;99.90;;;;;;5053058;28;20033;-73
2021/08/19 02:01:01;;;;;;;1.73;1.63;;;16.50;99.90;;;;;;5054173;28;20435;-72
2021/08/19 02:03:26;;;;;;;3.45;1.73;;;16.50;99.90;;;;;;5053995;28;20040;-72
2021/08/19 02:05:53;;;;;;;1.70;1.60;;;16.50;99.90;;;;;;5053026;28;20426;-72
2021/08/19 02:08:19;;;;;;;1.92;1.60;;;16.50;99.90;;;;;;5053939;28;20475;-73
2021/08/19 02:10:45;;;;;;;2.38;1.70;;;16.50;99.90;;;;;;5053739;28;20032;-72
2021/08/19 02:13:12;;;;;;;2.08;1.88;;;16.60;99.90;;;;;;5054009;28;20507;-72
2021/08/19 02:15:38;;;;;;;1.92;1.83;;;16.60;99.90;;;;;;5053161;28;20028;-72
2021/08/19 02:18:04;;;;;;;2.35;1.60;;;16.60;99.90;;;;;;5053795;28;20032;-72
2021/08/19 02:20:29;;;;;;;2.58;1.60;;;16.40;99.90;;;;;;5053479;28;20037;-72
2021/08/19 02:23:00;;;;;;;1.65;1.55;;;16.30;99.90;;;;;;5053679;28;20118;-71
2021/08/19 02:25:26;;;;;;;2.22;1.60;;;16.30;99.90;;;;;;5053100;28;20025;-72
2021/08/19 02:27:52;;;;;;;2.80;1.60;;;16.20;99.90;;;;;;5053635;28;20021;-71
2021/08/19 02:30:18;;;;;;;2.30;1.52;;;16.20;99.90;;;;;;5053612;28;20032;-71
2021/08/19 02:32:45;;;;;;;1.45;1.35;;;16.30;99.90;;;;;;5053443;28;20033;-71
2021/08/19 02:35:11;;;;;;;1.60;1.50;;;16.30;99.90;;;;;;5052560;28;20483;-71
2021/08/19 02:37:36;;;;;;;1.60;1.50;;;16.40;99.90;;;;;;5052248;28;20119;-71
2021/08/19 02:40:03;;;;;;;1.70;1.60;;;16.40;99.90;;;;;;5053294;28;20582;-71
2021/08/19 02:42:28;;;;;;;5.78;1.55;;;16.40;99.90;;;;;;5053442;28;20025;-71
2021/08/19 02:44:55;;;;;;;2.13;2.03;;;16.30;99.90;;;;;;5052575;28;20036;-71
2021/08/19 02:47:21;;;;;;;2.67;1.63;;;16.40;99.90;;;;;;5052351;28;20433;-72
2021/08/19 02:49:47;;;;;;;1.73;1.45;;;16.40;99.90;;;;;;5052704;28;20032;-71
2021/08/19 02:52:13;;;;;;;1.55;1.45;;;16.30;99.90;;;;;;5053394;28;20667;-71
2021/08/19 02:54:39;;;;;;;1.52;1.42;;;16.30;99.90;;;;;;5052432;28;20094;-72
2021/08/19 02:57:05;;;;;;;1.52;1.42;;;16.30;99.90;;;;;;5053612;28;20678;-71
2021/08/19 02:59:30;;;;;;;1.40;1.30;;;16.30;99.90;;;;;;5053055;28;20021;-72
2021/08/19 03:01:56;;;;;;;2.20;1.60;;;16.30;99.90;;;;;;5052748;28;20082;-71
2021/08/19 03:04:22;;;;;;;2.22;1.50;;;16.30;99.90;;;;;;5052580;28;20075;-72
2021/08/19 03:06:47;;;;;;;1.17;1.17;;;16.20;99.90;;;;;;5056583;28;20021;-71
2021/08/19 03:09:13;;;;;;;1.55;1.45;;;16.20;99.90;;;;;;5063996;28;20023;-72
2021/08/19 03:11:38;;;;;;;1.63;1.52;;;16.30;99.90;;;;;;5052806;28;20047;-72
2021/08/19 03:14:04;;;;;;;5.03;1.80;;;16.40;99.90;;;;;;5052643;28;20040;-72
2021/08/19 03:16:30;;;;;;;1.63;1.52;;;16.30;99.90;;;;;;5052338;28;20025;-72
2021/08/19 03:18:55;;;;;;;1.55;1.45;;;16.30;99.90;;;;;;5052602;28;20021;-72
2021/08/19 03:21:21;;;;;;;2.63;1.75;;;16.50;99.90;;;;;;5052395;28;20102;-71
2021/08/19 03:23:48;;;;;;;1.50;1.38;;;16.50;99.90;;;;;;5052349;28;20103;-72
2021/08/19 03:26:15;;;;;;;3.25;1.60;;;16.30;99.90;;;;;;5052057;28;20021;-72
2021/08/19 03:28:42;;;;;;;1.70;1.60;;;16.30;99.90;;;;;;5053094;28;20509;-72
2021/08/19 03:31:08;;;;;;;1.50;1.40;;;16.30;99.90;;;;;;5053304;28;20028;-72
2021/08/19 03:33:37;;;;;;;1.77;1.40;;;16.30;99.90;;;;;;5053140;28;20032;-71
2021/08/19 03:36:03;;;;;;;1.70;1.60;;;16.40;99.90;;;;;;5052109;28;20044;-72
2021/08/19 03:38:29;;;;;;;1.83;1.60;;;16.30;99.90;;;;;;5052707;28;20033;-72
2021/08/19 03:40:54;;;;;;;1.90;1.65;;;16.40;99.90;;;;;;5053111;28;20108;-72
2021/08/19 03:43:20;;;;;;;2.28;2.10;;;16.30;99.90;;;;;;5051644;28;20127;-72
2021/08/19 03:45:47;;;;;;;2.15;1.70;;;16.50;99.90;;;;;;5050789;28;20029;-71
2021/08/19 03:48:14;;;;;;;3.38;1.90;;;16.50;99.90;;;;;;5051402;28;20024;-72
2021/08/19 03:50:40;;;;;;;1.70;1.60;;;16.40;99.90;;;;;;5051282;28;20051;-72
2021/08/19 03:53:05;;;;;;;2.78;2.00;;;16.40;99.90;;;;;;5052737;28;20029;-72
2021/08/19 03:55:31;;;;;;;1.90;1.80;;;16.40;99.90;;;;;;5051873;28;20036;-72
2021/08/19 03:57:56;;;;;;;1.67;1.58;;;16.40;99.90;;;;;;5052582;28;20151;-72
2021/08/19 04:00:22;;;;;;;2.38;2.05;;;16.50;99.90;;;;;;5052583;28;20060;-72
2021/08/19 04:02:48;;;;;;;1.77;1.67;;;16.50;99.90;;;;;;5052615;28;20021;-72
2021/08/19 04:05:14;;;;;;;1.65;1.55;;;16.60;99.90;;;;;;5051626;28;20021;-72
2021/08/19 04:07:40;;;;;;;1.63;1.52;;;16.60;99.90;;;;;;5052467;28;20031;-72
2021/08/19 04:10:06;;;;;;;2.35;2.15;;;16.60;99.90;;;;;;5044022;28;20021;-71
2021/08/19 04:12:33;;;;;;;2.88;1.55;;;16.60;99.90;;;;;;5051132;28;20060;-71
2021/08/19 04:14:59;;;;;;;2.17;1.48;;;16.40;99.90;;;;;;5051086;28;20450;-71
2021/08/19 04:17:24;;;;;;;1.40;1.30;;;16.40;99.90;;;;;;5051871;28;20107;-70
2021/08/19 04:19:50;;;;;;;1.40;1.30;;;16.40;99.90;;;;;;5051584;28;20025;-70
2021/08/19 04:22:15;;;;;;;1.70;1.55;;;16.30;99.90;;;;;;5051698;28;20032;-69
2021/08/19 04:24:41;;;;;;;1.70;1.60;;;16.50;99.90;;;;;;5032725;28;20095;-72
2021/08/19 04:27:07;;;;;;;1.55;1.45;;;16.40;99.90;;;;;;5031888;28;20018;-70
2021/08/19 04:29:33;;;;;;;1.38;1.27;;;16.40;99.90;;;;;;5049875;28;20037;-70
2021/08/19 04:32:00;;;;;;;1.58;1.30;;;16.40;99.90;;;;;;5051259;28;20036;-69
2021/08/19 04:34:30;;;;;;;1.40;1.30;;;16.40;99.90;;;;;;5051210;28;20055;-70
2021/08/19 04:36:56;;;;;;;1.35;1.25;;;16.30;99.90;;;;;;5037625;28;20029;-72
2021/08/19 04:39:22;;;;;;;1.80;1.70;;;16.30;99.90;;;;;;5031595;28;20344;-72
2021/08/19 04:41:47;;;;;;;1.92;1.40;;;16.30;99.90;;;;;;5031328;28;20033;-72
2021/08/19 04:44:13;;;;;;;2.25;1.52;;;16.40;99.90;;;;;;5031711;28;20072;-72
2021/08/19 04:46:39;;;;;;;3.80;1.48;;;16.50;99.90;;;;;;5031351;28;20017;-71
2021/08/19 04:49:07;;;;;;;1.42;1.33;;;16.40;99.90;;;;;;5050221;28;20025;-71
2021/08/19 04:51:35;;;;;;;1.42;1.27;;;16.40;99.90;;;;;;5051183;28;20021;-72
2021/08/19 04:54:02;;;;;;;1.75;1.60;;;16.30;99.90;;;;;;5051861;28;20453;-72
2021/08/19 04:56:29;;;;;;;1.45;1.27;;;16.30;99.90;;;;;;5050822;28;20040;-71
2021/08/19 04:58:56;;;;;;;2.65;1.70;;;16.30;99.90;;;;;;5054936;28;20120;-72
2021/08/19 05:01:22;;;;;;;1.88;1.77;;;16.30;99.90;;;;;;5052847;28;20025;-71
2021/08/19 05:03:48;;;;;;;1.60;1.50;;;16.30;99.90;;;;;;5053877;28;20040;-71
2021/08/19 05:06:13;;;;;;;2.10;1.90;;;16.20;99.90;;;;;;5053674;28;20437;-71
2021/08/19 05:08:39;;;;;;;1.58;1.48;;;16.20;99.90;;;;;;5061855;28;20032;-72
2021/08/19 05:11:05;;;;;;;2.65;1.52;;;16.30;99.90;;;;;;5059367;28;20548;-71
2021/08/19 05:13:31;;;;;;;1.85;1.58;;;16.20;99.90;;;;;;5055230;28;20033;-71
2021/08/19 05:15:57;;;;;;;3.60;1.58;;;16.30;99.90;;;;;;5055303;28;20021;-71
2021/08/19 05:18:24;;;;;;;2.88;1.55;;;16.30;99.90;;;;;;5041262;28;20117;-71
2021/08/19 05:20:50;;;;;;;2.95;1.40;;;16.40;99.90;;;;;;5031379;28;20369;-71
2021/08/19 05:23:15;;;;;;;3.38;1.83;;;16.50;99.90;;;;;;5045316;28;20029;-71
2021/08/19 05:25:41;;;;;;;1.50;1.40;;;16.40;99.90;;;;;;5050636;28;20021;-71
2021/08/19 05:28:07;;;;;;;3.47;1.52;;;16.50;99.90;;;;;;5051435;28;20867;-69
2021/08/19 05:30:32;;;;;;;1.40;1.30;;;16.50;99.90;;;;;;5057455;28;20418;-76
2021/08/19 05:32:58;;;;;;;1.73;1.30;;;16.60;99.90;;;;;;5057314;28;20033;-75
2021/08/19 05:35:24;;;;;;;1.90;1.40;;;16.70;99.90;;;;;;5056203;28;20036;-76
2021/08/19 05:37:49;;;;;;;1.58;1.42;;;16.80;99.90;;;;;;5055307;28;20033;-76
2021/08/19 05:40:15;;;;;;;3.60;1.58;;;16.90;99.90;;;;;;5053398;28;20056;-76
2021/08/19 05:42:40;;;;;;;1.45;1.35;;;16.90;99.90;;;;;;5054652;28;20032;-76
2021/08/19 05:45:07;;;;;;;1.88;1.40;;;17.00;99.90;;;;;;5054343;28;20032;-76
2021/08/19 05:47:32;;;;;;;1.95;1.38;;;17.10;99.90;;;;;;5040930;28;20029;-78
2021/08/19 05:49:59;;;;;;;2.20;1.45;;;17.10;99.90;;;;;;5034030;28;20033;-71
2021/08/19 05:52:25;;;;;;;1.23;1.23;;;17.20;99.90;;;;;;5034674;28;20113;-69
2021/08/19 05:54:50;;;;;;;1.30;1.20;;;17.20;99.90;;;;;;5044434;28;20107;-70
2021/08/19 05:57:16;;;;;;;1.42;1.33;;;17.10;99.90;;;;;;5054949;28;20021;-71
2021/08/19 05:59:42;;;;;;;1.25;1.17;;;17.10;99.90;;;;;;5055671;28;20033;-70
2021/08/19 06:02:08;;;;;;;1.42;1.33;;;17.20;99.90;;;;;;5055073;28;20025;-70
2021/08/19 06:04:37;;;;;;;3.10;1.50;;;17.00;99.90;;;;;;5043559;28;20017;-71
2021/08/19 06:07:03;;;;;;;1.63;1.52;;;16.90;99.90;;;;;;5054092;28;20017;-71
2021/08/19 06:09:29;;;;;;;4.93;1.70;;;16.80;99.90;;;;;;5043591;28;20022;-70
2021/08/19 06:11:54;;;;;;;1.67;1.10;;;16.90;99.90;;;;;;5051289;28;20039;-70
2021/08/19 06:14:20;;;;;;;4.82;1.48;;;17.00;99.90;;;;;;5054170;28;20025;-70
2021/08/19 06:16:46;;;;;;;1.52;1.40;;;16.90;99.90;;;;;;5054747;28;20112;-71
2021/08/19 06:19:11;;;;;;;1.48;1.27;;;17.00;99.90;;;;;;5045597;28;20024;-70
2021/08/19 06:21:37;;;;;;;1.38;1.27;;;17.10;99.90;;;;;;5050630;28;20537;-71
2021/08/19 06:24:03;;;;;;;1.73;1.20;;;17.00;99.90;;;;;;5048192;28;20032;-70
2021/08/19 06:26:29;;;;;;;2.35;1.23;;;17.00;99.90;;;;;;5054081;28;20025;-73
2021/08/19 06:28:54;;;;;;;1.50;1.40;;;17.00;99.90;;;;;;5075994;23;20051;-69
2021/08/19 06:31:20;;;;;;;3.25;1.40;;;17.00;99.90;;;;;;5058315;28;20391;-70
2021/08/19 06:33:45;;;;;;;4.00;2.00;;;17.10;99.90;;;;;;5053086;28;20076;-69
2021/08/19 06:36:12;;;;;;;3.15;1.60;;;17.10;99.90;;;;;;5053529;28;20033;-69
2021/08/19 06:38:37;;;;;;;3.00;1.40;;;17.10;99.90;;;;;;5041987;28;20032;-70
2021/08/19 06:41:03;;;;;;;3.42;1.50;;;17.00;99.90;;;;;;5053598;28;20514;-70
2021/08/19 06:43:29;;;;;;;2.33;1.45;;;16.90;99.90;;;;;;5070576;28;20028;-71
2021/08/19 06:45:55;;;;;;;1.58;1.48;;;16.90;99.90;;;;;;5068987;28;20029;-71
2021/08/19 06:48:20;;;;;;;1.65;1.42;;;16.90;99.90;;;;;;5072130;28;20090;-71
2021/08/19 06:50:46;;;;;;;2.05;1.48;;;17.10;99.90;;;;;;5073198;28;20016;-69
2021/08/19 06:53:12;;;;;;;3.03;1.48;;;17.00;99.90;;;;;;5073113;28;20056;-71
2021/08/19 06:55:37;;;;;;;3.20;1.58;;;17.00;99.90;;;;;;5071195;28;20035;-70
2021/08/19 06:58:03;;;;;;;1.70;1.30;;;17.10;99.90;;;;;;5073474;28;20111;-70
2021/08/19 07:00:28;;;;;;;2.05;1.55;;;17.00;99.90;;;;;;5072022;28;20707;-70
2021/08/19 07:02:54;;;;;;;1.80;1.70;;;17.30;99.90;;;;;;5067996;28;20429;-70
2021/08/19 07:05:20;;;;;;;1.50;1.40;;;17.20;99.90;;;;;;5051872;28;20025;-69
2021/08/19 07:07:45;;;;;;;1.95;1.30;;;17.10;99.90;;;;;;5052667;28;20028;-70
2021/08/19 07:10:11;;;;;;;2.22;1.45;;;17.20;99.90;;;;;;5052670;28;20021;-70
2021/08/19 07:12:37;;;;;;;10.60;2.28;;;17.30;99.90;;;;;;5053294;28;20028;-70
2021/08/19 07:15:05;;;;;;;1.55;1.45;;;17.40;99.90;;;;;;5052418;28;20032;-70
2021/08/19 07:17:30;;;;;;;1.55;1.30;;;17.50;99.90;;;;;;5058517;28;20517;-70
2021/08/19 07:19:56;;;;;;;2.05;1.20;;;17.60;99.90;;;;;;5072905;28;20033;-70
2021/08/19 07:22:22;;;;;;;3.70;1.40;;;17.80;99.90;;;;;;5072956;28;20028;-71
2021/08/19 07:24:47;;;;;;;1.08;1.00;;;18.00;99.90;;;;;;5071893;28;20021;-71
2021/08/19 07:27:13;;;;;;;1.60;1.10;;;18.10;99.90;;;;;;5072802;28;20430;-70
2021/08/19 07:29:38;;;;;;;2.05;0.95;;;18.10;99.90;;;;;;5072695;28;20033;-72
2021/08/19 07:32:04;;;;;;;2.60;1.23;;;18.10;99.90;;;;;;5072761;28;20032;-73
2021/08/19 07:34:30;;;;;;;2.03;1.20;;;18.30;99.90;;;;;;5071993;28;20538;-72
2021/08/19 07:36:56;;;;;;;2.25;1.30;;;18.30;99.90;;;;;;5072448;28;20036;-72
2021/08/19 07:39:22;;;;;;;1.75;1.15;;;18.50;99.90;;;;;;5069197;28;20032;-72
2021/08/19 07:41:47;;;;;;;3.13;1.20;;;18.40;99.90;;;;;;5072202;28;20086;-72
2021/08/19 07:44:13;;;;;;;5.00;1.48;;;18.70;99.90;;;;;;5072492;28;20016;-71
2021/08/19 07:46:39;;;;;;;2.35;1.50;;;18.60;99.90;;;;;;5071840;28;20414;-71
2021/08/19 07:49:05;;;;;;;2.33;1.40;;;18.70;99.90;;;;;;5069217;28;20029;-72
2021/08/19 07:51:31;;;;;;;2.53;1.50;;;18.90;99.90;;;;;;5072257;28;20051;-72
2021/08/19 07:53:57;;;;;;;1.40;1.30;;;19.10;99.90;;;;;;5071554;28;20559;-71
2021/08/19 07:56:23;;;;;;;1.45;1.15;;;19.20;99.90;;;;;;5071409;28;20021;-70
2021/08/19 07:58:49;;;;;;;2.05;1.30;;;19.10;99.90;;;;;;5059566;28;20024;-70
2021/08/19 08:01:15;;;;;;;1.40;1.30;;;19.10;99.90;;;;;;5052466;28;20502;-70
2021/08/19 08:03:41;;;;;;;4.13;0.98;;;19.00;99.90;;;;;;5052109;28;20036;-72
2021/08/19 08:06:06;;;;;;;2.30;1.20;;;19.00;99.90;;;;;;5059659;28;20457;-71
2021/08/19 08:08:32;;;;;;;1.67;1.30;;;19.30;99.90;;;;;;5051498;28;20028;-69
2021/08/19 08:10:58;;;;;;;1.45;1.10;;;19.50;99.90;;;;;;5052004;28;20025;-72
2021/08/19 08:13:23;;;;;;;2.63;1.20;;;19.60;99.90;;;;;;5051740;28;20428;-73
2021/08/19 08:15:49;;;;;;;1.52;1.08;;;19.50;99.90;;;;;;5050523;28;20021;-71
2021/08/19 08:18:16;;;;;;;1.30;1.08;;;19.50;99.90;;;;;;5051854;28;20032;-71
2021/08/19 08:20:43;;;;;;;1.27;1.13;;;20.00;99.90;;;;;;5051613;28;20086;-71
2021/08/19 08:23:09;;;;;;;1.00;1.00;;;20.40;99.90;;;;;;5052043;28;20033;-73
2021/08/19 08:25:35;;;;;;;0.70;0.70;;;20.70;99.90;;;;;;5051061;28;20095;-69
2021/08/19 08:28:10;;;;;;;1.25;1.15;;;21.00;99.90;;;;;;5051500;28;20390;-69
2021/08/19 08:30:38;;;;;;;0.90;0.82;;;21.10;99.90;;;;;;5051594;28;20021;-72
2021/08/19 08:33:04;;;;;;;1.85;1.08;;;21.50;99.90;;;;;;5056026;28;20025;-71
2021/08/19 08:35:33;;;;;;;1.23;1.13;;;21.50;99.90;;;;;;5070703;28;20024;-70
2021/08/19 08:38:05;;;;;;;1.17;0.85;;;22.40;99.90;;;;;;5070512;28;20425;-70
2021/08/19 08:40:33;;;;;;;1.33;1.05;;;22.00;99.90;;;;;;5071630;28;20020;-70
2021/08/19 08:42:59;;;;;;;0.65;0.63;;;21.40;99.90;;;;;;5071712;28;20032;-70
2021/08/19 08:45:26;;;;;;;2.08;1.13;;;21.80;99.90;;;;;;5070629;28;20044;-70
2021/08/19 08:47:51;;;;;;;0.82;0.80;;;22.00;99.90;;;;;;5070879;28;20016;-69
2021/08/19 08:50:17;;;;;;;2.38;0.88;;;21.80;99.90;;;;;;5070795;28;20020;-70
2021/08/19 08:52:44;;;;;;;1.17;0.88;;;21.90;99.90;;;;;;5071253;28;20116;-70
2021/08/19 08:55:10;;;;;;;1.17;0.80;;;21.80;99.90;;;;;;5070785;28;20036;-70
2021/08/19 08:57:37;;;;;;;4.00;1.00;;;21.60;99.90;;;;;;5069413;28;20142;-70
2021/08/19 09:00:07;;;;;;;1.52;1.42;;;21.90;99.90;;;;;;5070658;28;20096;-71
2021/08/19 09:02:34;;;;;;;3.55;1.40;;;22.20;99.90;;;;;;5071400;28;20031;-71
2021/08/19 09:05:23;;;;;;;1.60;1.10;;;21.70;99.90;;;;;;5070456;28;20023;-71
2021/08/19 09:08:00;;;;;;;1.17;1.08;;;21.70;99.90;;;;;;5063094;28;20101;-70
2021/08/19 09:10:35;;;;;;;1.50;1.40;;;22.20;99.90;;;;;;5071019;28;20025;-70
2021/08/19 09:13:18;;;;;;;1.55;0.93;;;22.20;99.90;;;;;;5071002;28;20031;-70
2021/08/19 09:15:46;;;;;;;0.82;0.82;;;22.70;99.90;;;;;;5070112;28;20044;-69
2021/08/19 09:18:27;;;;;;;2.67;1.17;;;22.90;99.90;;;;;;5070570;28;20548;-68
2021/08/19 09:20:53;;;;;;;0.88;0.88;;;23.20;99.90;;;;;;5070800;28;20029;-70
2021/08/19 09:23:19;;;;;;;1.52;1.10;;;23.10;99.90;;;;;;5070721;28;20036;-69
2021/08/19 09:25:46;;;;;;;1.77;1.23;;;22.90;99.90;;;;;;5069028;28;20137;-69
2021/08/19 09:28:28;;;;;;;1.08;0.98;;;22.80;99.90;;;;;;5070749;28;20033;-70
2021/08/19 09:30:57;;;;;;;1.40;1.13;;;22.80;99.90;;;;;;5070790;28;20032;-69
2021/08/19 09:33:27;;;;;;;2.63;1.20;;;22.80;99.90;;;;;;5069985;28;20482;-69
2021/08/19 09:36:02;;;;;;;2.10;1.08;;;23.00;99.90;;;;;;5069753;28;21081;-69
2021/08/19 09:38:42;;;;;;;4.03;1.10;;;22.90;99.90;;;;;;5070823;28;20051;-70
2021/08/19 09:41:17;;;;;;;1.15;1.00;;;23.00;99.90;;;;;;5070576;28;20052;-72
2021/08/19 09:43:48;;;;;;;1.17;1.00;;;23.20;99.90;;;;;;5070651;28;20028;-71
2021/08/19 09:46:16;;;;;;;1.00;0.90;;;24.00;99.90;;;;;;5069910;28;20486;-72
2021/08/19 09:48:44;;;;;;;0.80;0.77;;;24.50;99.90;;;;;;5070545;28;20037;-70
2021/08/19 09:51:22;;;;;;;0.85;0.82;;;24.60;99.90;;;;;;5070656;28;20029;-69
2021/08/19 09:53:59;;;;;;;5.38;1.00;;;23.80;99.90;;;;;;5070665;28;20501;-69
2021/08/19 09:56:34;;;;;;;3.80;1.00;;;24.30;99.90;;;;;;5070066;28;20060;-71
2021/08/19 09:59:24;;;;;;;0.80;0.80;;;24.50;99.90;;;;;;5070653;28;20021;-68
2021/08/19 10:01:52;;;;;;;2.60;0.95;;;24.30;99.90;;;;;;5070352;28;20027;-70
2021/08/19 10:04:18;;;;;;;2.47;0.85;;;23.50;99.90;;;;;;5070063;28;20111;-70
2021/08/19 10:06:45;;;;;;;3.03;1.20;;;23.30;99.90;;;;;;5069658;28;20091;-72
2021/08/19 10:09:12;;;;;;;1.23;1.13;;;22.90;99.90;;;;;;5070288;28;20017;-71
2021/08/19 10:11:42;;;;;;;2.85;0.80;;;22.90;99.90;;;;;;5070803;28;20079;-73
2021/08/19 10:14:13;;;;;;;0.88;0.88;;;23.20;99.90;;;;;;5070621;28;20036;-72
2021/08/19 10:16:40;;;;;;;1.50;1.07;;;23.40;99.90;;;;;;5072116;28;20035;-72
2021/08/19 10:19:09;;;;;;;1.27;0.90;;;23.70;99.90;;;;;;5074277;28;20119;-72
2021/08/19 10:21:37;;;;;;;0.90;0.90;;;24.20;99.90;;;;;;5074043;28;20067;-72
2021/08/19 10:24:04;;;;;;;0.80;0.80;;;24.20;99.90;;;;;;5073996;28;20020;-75
2021/08/19 10:26:30;;;;;;;1.00;1.00;;;23.90;99.90;;;;;;5073383;28;20028;-71
2021/08/19 10:28:58;;;;;;;2.60;0.80;;;23.60;99.90;;;;;;5073661;28;20033;-71
2021/08/19 10:31:43;;;;;;;1.80;0.88;;;23.80;99.90;;;;;;5073907;28;20378;-71
2021/08/19 10:34:11;;;;;;;1.05;0.90;;;23.80;99.90;;;;;;5073681;28;20328;-70
2021/08/19 10:36:45;;;;;;;0.73;0.73;;;23.80;99.90;;;;;;5073297;28;20087;-71
2021/08/19 10:39:19;;;;;;;1.02;0.90;;;24.10;99.90;;;;;;5073759;28;20031;-71
2021/08/19 10:41:55;;;;;;;3.53;0.82;;;24.00;99.90;;;;;;5073641;28;20077;-71
2021/08/19 10:44:45;;;;;;;1.75;0.93;;;23.90;99.90;;;;;;5072955;28;20095;-72
2021/08/19 10:47:37;;;;;;;0.82;0.82;;;23.80;99.90;;;;;;5073020;28;20672;-72
2021/08/19 10:50:27;;;;;;;1.05;0.60;;;23.20;99.90;;;;;;5073033;28;20021;-72
2021/08/19 10:52:54;;;;;;;0.85;0.80;;;23.40;99.90;;;;;;5073351;28;20520;-71
2021/08/19 10:55:20;;;;;;;0.68;0.65;;;23.50;99.90;;;;;;5072312;28;20031;-71
2021/08/19 10:57:50;;;;;;;1.00;0.90;;;23.20;99.90;;;;;;5073501;28;20033;-71
2021/08/19 11:00:17;;;;;;;0.93;0.93;;;23.10;99.90;;;;;;5073329;28;20103;-72
2021/08/19 11:02:48;;;;;;;1.55;0.82;;;22.90;99.90;;;;;;5073481;28;20064;-71
2021/08/19 11:05:25;;;;;;;1.20;0.63;;;22.90;99.90;;;;;;5071082;28;20028;-71
2021/08/19 11:07:52;;;;;;;0.77;0.77;;;22.80;99.90;;;;;;5073446;28;20469;-71
2021/08/19 11:10:20;;;;;;;0.80;0.73;;;22.50;99.90;;;;;;5071912;28;20422;-71
2021/08/19 11:12:47;;;;;;;1.50;0.85;;;22.80;99.90;;;;;;5073051;28;20028;-71
2021/08/19 11:15:13;;;;;;;0.60;0.60;;;23.20;99.90;;;;;;5072697;28;20099;-72
2021/08/19 11:17:50;;;;;;;1.13;0.73;;;22.90;99.90;;;;;;5073127;28;20108;-72
2021/08/19 11:20:28;;;;;;;0.73;0.70;;;22.70;99.90;;;;;;5072770;28;20021;-70
2021/08/19 11:23:07;;;;;;;0.85;0.80;;;22.80;99.90;;;;;;5061340;28;20102;-71
2021/08/19 11:25:36;;;;;;;1.13;0.80;;;23.40;99.90;;;;;;5051941;28;20390;-74
2021/08/19 11:28:09;;;;;;;0.80;0.80;;;23.30;99.90;;;;;;5051442;28;20025;-73
2021/08/19 11:30:37;;;;;;;1.50;0.75;;;23.00;99.90;;;;;;5052469;28;20027;-73
2021/08/19 11:33:29;;;;;;;1.23;0.70;;;22.80;99.90;;;;;;5056985;28;20074;-72
2021/08/19 11:36:00;;;;;;;1.20;0.90;;;23.10;99.90;;;;;;5069244;28;20040;-71
2021/08/19 11:38:28;;;;;;;3.27;0.80;;;23.40;99.90;;;;;;5068584;28;20039;-69
2021/08/19 11:40:58;;;;;;;0.80;0.80;;;23.90;99.90;;;;;;5069835;28;20119;-72
2021/08/19 11:43:28;;;;;;;0.95;0.80;;;23.40;99.90;;;;;;5068359;28;20025;-71
2021/08/19 11:46:05;;;;;;;0.90;0.80;;;22.80;99.90;;;;;;5052816;28;20032;-72
2021/08/19 11:48:31;;;;;;;0.90;0.90;;;22.80;99.90;;;;;;5058364;28;20025;-70
2021/08/19 11:50:59;;;;;;;0.80;0.75;;;23.00;99.90;;;;;;5072384;28;20025;-70
2021/08/19 11:53:25;;;;;;;1.58;0.90;;;22.70;99.90;;;;;;5072141;28;20024;-73
2021/08/19 11:55:52;;;;;;;4.00;0.80;;;22.40;99.90;;;;;;5071575;28;20021;-73
2021/08/19 11:58:25;;;;;;;1.48;0.90;;;21.90;99.90;;;;;;5072267;28;20024;-73
2021/08/19 12:01:09;;;;;;;0.70;0.70;;;22.10;99.90;;;;;;5072284;28;20103;-73
2021/08/19 12:03:37;;;;;;;0.68;0.68;;;22.40;99.90;;;;;;5071863;28;20028;-73
2021/08/19 12:06:06;;;;;;;2.20;1.00;;;22.80;99.90;;;;;;5071448;28;20021;-73
2021/08/19 12:08:36;;;;;;;2.90;1.20;;;22.80;99.90;;;;;;5068824;28;20085;-70
2021/08/19 12:11:07;;;;;;;1.95;1.20;;;23.10;99.90;;;;;;5071793;28;20093;-73
2021/08/19 12:13:35;;;;;;;1.80;0.77;;;23.50;99.90;;;;;;5071082;28;20545;-71
2021/08/19 12:16:01;;;;;;;0.70;0.70;;;23.70;99.90;;;;;;5070723;28;20090;-71
2021/08/19 12:18:27;;;;;;;3.63;0.90;;;23.70;99.90;;;;;;5069727;28;20523;-71
2021/08/19 12:21:22;;;;;;;0.73;0.73;;;24.40;99.90;;;;;;5071887;28;20757;-71
2021/08/19 12:23:48;;;;;;;1.10;0.85;;;24.70;99.90;;;;;;5042796;28;20041;-71
2021/08/19 12:26:15;;;;;;;1.02;0.90;;;23.20;99.90;;;;;;5064533;28;20099;-71
2021/08/19 12:28:57;;;;;;;1.20;0.80;;;23.10;99.90;;;;;;5071555;28;20178;-71
2021/08/19 12:31:23;;;;;;;2.08;0.85;;;22.90;99.90;;;;;;5071464;28;20055;-70
2021/08/19 12:34:02;;;;;;;0.93;0.90;;;23.30;99.90;;;;;;5071085;28;20025;-71
2021/08/19 12:36:32;;;;;;;0.70;0.70;;;23.60;99.90;;;;;;5067958;28;20017;-71
2021/08/19 12:39:36;;;;;;;0.70;0.70;;;23.80;99.90;;;;;;5060198;28;20367;-70
2021/08/19 12:42:09;;;;;;;0.80;0.80;;;23.90;99.90;;;;;;5071623;28;20051;-71
2021/08/19 12:44:36;;;;;;;2.88;0.77;;;25.00;99.90;;;;;;5070990;28;20378;-71
2021/08/19 12:47:02;;;;;;;1.55;0.88;;;24.20;99.90;;;;;;5071876;28;20058;-71
2021/08/19 12:49:30;;;;;;;1.45;0.70;;;24.10;99.90;;;;;;5071251;28;20020;-71
2021/08/19 12:52:16;;;;;;;3.42;0.70;;;24.30;99.90;;;;;;5071555;28;20025;-72
2021/08/19 12:55:11;;;;;;;0.95;0.93;;;23.90;99.90;;;;;;5069892;28;20378;-72